Time;durP1;ratioP1;P1;durP2;ratioP2;P2;SDS_P1;SDS_P2;PMS_P1;PMS_P2;Temp;Humidity;BMP_temperature;BMP_pressure;BME280_temperature;BME280_humidity;BME280_pressure;Samples;Min_cycle;Max_cycle;Signal;HPM_P1;HPM_P2
2021/12/01 00:01:16;;;;;;;8.25;3.33;;;;;;;-0.48;85.61;99256.50;5050364;28;20074;-77
2021/12/01 00:03:44;;;;;;;7.32;2.90;;;;;;;-0.54;85.80;99258.94;5055384;28;20089;-77
2021/12/01 00:06:11;;;;;;;6.97;2.95;;;;;;;-0.56;86.15;99260.59;5052783;28;20128;-77
2021/12/01 00:08:39;;;;;;;6.57;2.78;;;;;;;-0.59;86.45;99261.44;5050774;28;20037;-77
2021/12/01 00:11:06;;;;;;;8.55;3.10;;;;;;;-0.61;86.15;99265.63;5052174;28;20127;-79
2021/12/01 00:13:34;;;;;;;6.35;3.30;;;;;;;-0.58;86.15;99275.88;5054523;28;20150;-78
2021/12/01 00:16:02;;;;;;;10.77;3.35;;;;;;;-0.59;86.41;99278.38;5052017;28;20048;-78
2021/12/01 00:18:29;;;;;;;6.18;3.15;;;;;;;-0.63;86.17;99283.44;5053738;28;20052;-78
2021/12/01 00:20:57;;;;;;;8.65;3.55;;;;;;;-0.65;86.07;99290.19;5053135;28;20052;-78
2021/12/01 00:23:25;;;;;;;8.35;3.35;;;;;;;-0.67;86.00;99298.66;5053888;28;20044;-77
2021/12/01 00:25:52;;;;;;;7.97;3.00;;;;;;;-0.71;85.87;99297.75;5053184;28;20062;-77
2021/12/01 00:28:19;;;;;;;7.88;3.03;;;;;;;-0.72;85.70;99301.13;5053927;28;20053;-78
2021/12/01 00:30:48;;;;;;;9.88;3.40;;;;;;;-0.75;86.04;99301.09;5057329;28;21592;-77
2021/12/01 00:33:22;;;;;;;6.20;2.80;;;;;;;-0.76;85.83;99306.16;5055669;28;20378;-78
2021/12/01 00:35:50;;;;;;;8.90;2.85;;;;;;;-0.79;85.94;99299.34;5067324;28;20040;-78
2021/12/01 00:38:19;;;;;;;5.80;2.75;;;;;;;-0.82;85.66;99301.84;5062346;28;20051;-77
2021/12/01 00:40:47;;;;;;;5.35;2.53;;;;;;;-0.85;85.60;99314.53;5056057;28;20048;-77
2021/12/01 00:43:17;;;;;;;7.40;2.10;;;;;;;-0.88;85.44;99313.63;5058445;28;20444;-77
2021/12/01 00:45:49;;;;;;;8.05;2.55;;;;;;;-0.91;85.23;99313.56;5066451;28;20575;-77
2021/12/01 00:48:19;;;;;;;5.90;2.08;;;;;;;-0.97;84.85;99312.66;5059056;28;20041;-78
2021/12/01 00:50:47;;;;;;;5.88;2.45;;;;;;;-1.00;85.16;99316.84;5058196;28;20041;-78
2021/12/01 00:53:15;;;;;;;6.57;2.25;;;;;;;-1.02;84.98;99318.50;5061758;28;20063;-78
2021/12/01 00:55:43;;;;;;;6.03;2.10;;;;;;;-1.03;84.94;99320.19;5060092;28;20055;-78
2021/12/01 00:58:12;;;;;;;6.45;2.58;;;;;;;-1.04;84.68;99320.13;5060849;28;20508;-77
2021/12/01 01:00:42;;;;;;;8.60;2.97;;;;;;;-1.07;84.50;99320.94;5060799;28;20167;-78
2021/12/01 01:03:09;;;;;;;9.25;3.10;;;;;;;-1.10;84.25;99335.31;5062461;28;20411;-78
2021/12/01 01:05:38;;;;;;;7.65;2.65;;;;;;;-1.11;84.49;99338.69;5066695;28;20044;-78
2021/12/01 01:08:06;;;;;;;5.38;2.22;;;;;;;-1.16;84.55;99341.16;5064639;28;20044;-78
2021/12/01 01:16:23;;;;;;;5.68;1.73;;;;;;;-1.28;84.15;99351.97;4988950;28;20147;-77
2021/12/01 01:18:55;;;;;;;4.25;1.80;;;;;;;-1.34;83.58;99356.97;5063214;28;20071;-78
2021/12/01 01:21:25;;;;;;;4.78;1.67;;;;;;;-1.38;83.97;99360.28;5059748;28;20051;-79
2021/12/01 01:23:53;;;;;;;5.25;1.80;;;;;;;-1.40;84.12;99374.66;5057463;28;20040;-78
2021/12/01 01:26:22;;;;;;;4.43;2.20;;;;;;;-1.40;83.99;99367.03;5066556;28;20040;-78
2021/12/01 01:28:50;;;;;;;6.18;2.40;;;;;;;-1.46;84.20;99364.38;5060048;28;20037;-78
2021/12/01 01:31:18;;;;;;;4.63;1.98;;;;;;;-1.45;84.20;99373.72;5059204;28;20052;-78
2021/12/01 01:33:46;;;;;;;4.00;1.65;;;;;;;-1.48;84.22;99378.75;5063861;28;20044;-78
2021/12/01 01:36:13;;;;;;;4.43;1.90;;;;;;;-1.49;84.29;99377.03;5065164;28;20045;-77
2021/12/01 01:38:43;;;;;;;4.50;2.00;;;;;;;-1.52;84.21;99382.06;5056553;28;20415;-78
2021/12/01 01:41:12;;;;;;;4.60;1.60;;;;;;;-1.56;84.29;99389.56;5057799;28;20048;-78
2021/12/01 01:43:41;;;;;;;4.55;1.50;;;;;;;-1.63;84.59;99391.13;5060341;28;20040;-78
2021/12/01 01:46:09;;;;;;;8.07;1.60;;;;;;;-1.69;84.59;99385.94;5058066;28;20049;-78
2021/12/01 01:48:45;;;;;;;3.40;1.48;;;;;;;-1.76;85.08;99384.13;5058351;28;20063;-77
2021/12/01 01:51:14;;;;;;;4.60;1.63;;;;;;;-1.83;85.84;99389.91;5062079;28;20056;-77
2021/12/01 01:53:43;;;;;;;3.95;1.35;;;;;;;-1.88;86.19;99389.81;5054780;28;20041;-79
2021/12/01 01:56:11;;;;;;;4.25;1.60;;;;;;;-1.94;86.01;99390.56;5054563;28;20061;-79
2021/12/01 01:58:38;;;;;;;4.30;1.60;;;;;;;-1.98;86.61;99391.31;5062647;28;20060;-79
2021/12/01 02:01:08;;;;;;;5.78;1.80;;;;;;;-2.03;86.62;99385.28;5058774;28;20045;-79
2021/12/01 02:03:39;;;;;;;5.10;1.70;;;;;;;-2.07;86.49;99380.97;5055633;28;20147;-78
2021/12/01 02:06:07;;;;;;;5.75;2.30;;;;;;;-2.07;86.59;99383.53;5060721;28;20051;-78
2021/12/01 02:08:36;;;;;;;5.60;1.90;;;;;;;-2.11;87.28;99384.25;5055604;28;20411;-78
2021/12/01 02:11:07;;;;;;;4.50;1.70;;;;;;;-2.13;87.05;99390.97;5056341;28;20072;-78
2021/12/01 02:13:35;;;;;;;3.47;1.60;;;;;;;-2.17;87.40;99399.34;5057698;28;20057;-78
2021/12/01 02:16:03;;;;;;;5.43;1.80;;;;;;;-2.20;87.67;99393.38;5056982;28;20039;-78
2021/12/01 02:18:31;;;;;;;4.03;1.52;;;;;;;-2.22;87.42;99403.47;5062636;28;20048;-78
2021/12/01 02:21:05;;;;;;;3.00;1.25;;;;;;;-2.22;87.91;99395.88;5058154;28;20480;-78
2021/12/01 02:23:33;;;;;;;4.57;1.63;;;;;;;-2.23;87.23;99400.09;5056909;28;20056;-77
2021/12/01 02:26:00;;;;;;;3.63;1.80;;;;;;;-2.30;87.85;99397.38;5058627;28;20041;-78
2021/12/01 02:28:27;;;;;;;3.78;1.60;;;;;;;-2.34;87.42;99400.69;5063028;28;20067;-77
2021/12/01 02:30:55;;;;;;;4.13;1.42;;;;;;;-2.36;87.34;99404.88;5058004;28;20765;-78
2021/12/01 02:33:22;;;;;;;6.50;1.50;;;;;;;-2.37;87.46;99411.63;5056912;28;20040;-78
2021/12/01 02:35:49;;;;;;;4.25;1.55;;;;;;;-2.36;87.95;99417.56;5058486;28;20043;-77
2021/12/01 02:38:18;;;;;;;4.68;1.50;;;;;;;-2.38;87.43;99424.28;5059010;28;20554;-77
2021/12/01 02:40:46;;;;;;;5.53;1.55;;;;;;;-2.38;87.94;99424.28;5062875;28;20044;-77
2021/12/01 02:43:13;;;;;;;3.80;1.42;;;;;;;-2.42;87.84;99417.44;5059579;28;20044;-78
2021/12/01 02:45:41;;;;;;;5.20;1.65;;;;;;;-2.40;88.07;99421.72;5059863;28;20055;-77
2021/12/01 02:48:11;;;;;;;4.18;1.42;;;;;;;-2.42;87.34;99422.50;5061220;28;20861;-78
2021/12/01 02:50:38;;;;;;;5.53;1.48;;;;;;;-2.45;87.77;99423.28;5057611;28;20036;-77
2021/12/01 02:53:05;;;;;;;5.00;1.52;;;;;;;-2.46;87.76;99420.72;5062218;28;20041;-78
2021/12/01 02:55:40;;;;;;;5.75;1.30;;;;;;;-2.47;87.66;99416.47;5065852;28;20049;-77
2021/12/01 02:58:09;;;;;;;3.35;1.67;;;;;;;-2.44;87.76;99419.06;5055106;28;20118;-78
2021/12/01 03:00:36;;;;;;;7.85;1.58;;;;;;;-2.45;87.66;99414.81;5056302;28;20041;-79
2021/12/01 03:03:05;;;;;;;5.07;1.90;;;;;;;-2.47;87.39;99424.09;5053614;28;20060;-80
2021/12/01 03:05:32;;;;;;;5.40;2.20;;;;;;;-2.49;87.94;99423.19;5058982;28;20070;-77
2021/12/01 03:08:00;;;;;;;4.80;1.75;;;;;;;-2.48;87.52;99424.91;5062336;28;20053;-78
2021/12/01 03:10:27;;;;;;;4.00;1.80;;;;;;;-2.47;87.32;99429.16;5056437;28;20045;-78
2021/12/01 03:12:57;;;;;;;4.55;1.65;;;;;;;-2.51;87.40;99429.91;5059028;28;20560;-78
2021/12/01 03:15:24;;;;;;;7.30;2.00;;;;;;;-2.53;87.37;99434.94;5059494;28;20037;-78
2021/12/01 03:17:51;;;;;;;5.20;1.80;;;;;;;-2.56;87.72;99438.28;5063492;28;20127;-78
2021/12/01 03:20:22;;;;;;;4.80;2.00;;;;;;;-2.55;88.03;99445.06;5054429;28;20055;-79
2021/12/01 03:22:49;;;;;;;4.28;1.70;;;;;;;-2.58;87.94;99445.00;5059439;28;20077;-79
2021/12/01 03:25:17;;;;;;;5.25;2.20;;;;;;;-2.58;87.72;99447.53;5061044;28;20049;-78
2021/12/01 03:27:44;;;;;;;6.72;2.28;;;;;;;-2.58;87.70;99446.69;5057674;28;20040;-78
2021/12/01 03:30:14;;;;;;;3.95;1.75;;;;;;;-2.60;88.00;99435.63;5057449;28;20068;-78
2021/12/01 03:32:42;;;;;;;5.05;2.00;;;;;;;-2.60;87.93;99436.50;5053663;28;20400;-78
2021/12/01 03:35:12;;;;;;;4.65;1.83;;;;;;;-2.62;87.82;99434.72;5054489;28;20110;-77
2021/12/01 03:37:41;;;;;;;3.95;1.50;;;;;;;-2.62;88.35;99438.09;5054067;28;20039;-78
2021/12/01 03:40:10;;;;;;;5.65;2.10;;;;;;;-2.62;87.98;99434.72;5056130;28;20135;-78
2021/12/01 03:42:37;;;;;;;4.30;1.92;;;;;;;-2.61;87.88;99434.75;5056744;28;20048;-78
2021/12/01 03:45:07;;;;;;;6.00;2.10;;;;;;;-2.63;87.87;99430.47;5060495;28;20032;-78
2021/12/01 03:47:35;;;;;;;2.92;1.50;;;;;;;-2.64;88.15;99436.34;5056198;28;20130;-79
2021/12/01 03:50:03;;;;;;;5.93;1.63;;;;;;;-2.64;87.56;99442.28;5058423;28;20053;-78
2021/12/01 03:52:32;;;;;;;4.35;1.50;;;;;;;-2.65;87.91;99440.56;5052944;28;20045;-78
2021/12/01 03:54:59;;;;;;;4.30;1.67;;;;;;;-2.68;87.68;99447.25;5051136;28;20114;-79
2021/12/01 03:57:27;;;;;;;6.55;2.40;;;;;;;-2.71;87.60;99445.50;5061406;28;20484;-79
2021/12/01 03:59:54;;;;;;;4.63;1.80;;;;;;;-2.76;87.86;99441.13;5054929;28;20546;-78
2021/12/01 04:02:21;;;;;;;5.78;2.10;;;;;;;-2.80;88.00;99435.13;5052866;28;20107;-78
2021/12/01 04:04:50;;;;;;;5.60;1.95;;;;;;;-2.84;87.95;99432.50;5055856;28;20043;-78
2021/12/01 04:07:17;;;;;;;3.70;1.70;;;;;;;-2.80;88.38;99435.13;5052414;28;20059;-78
2021/12/01 04:09:46;;;;;;;5.90;2.20;;;;;;;-2.79;88.22;99431.78;5052660;28;20036;-77
2021/12/01 04:12:14;;;;;;;7.85;2.70;;;;;;;-2.78;88.06;99427.56;5052799;28;20404;-78
2021/12/01 04:14:41;;;;;;;5.00;2.00;;;;;;;-2.82;87.63;99431.72;5053238;28;20048;-78
2021/12/01 04:17:08;;;;;;;5.38;1.75;;;;;;;-2.83;87.89;99429.13;5060912;28;20040;-77
2021/12/01 04:19:36;;;;;;;4.97;2.10;;;;;;;-2.88;88.04;99429.03;5063142;28;20056;-79
2021/12/01 04:22:05;;;;;;;4.45;1.73;;;;;;;-2.92;87.59;99425.56;5056627;28;20041;-78
2021/12/01 04:24:33;;;;;;;5.05;1.95;;;;;;;-2.97;88.12;99416.13;5057938;28;20416;-78
2021/12/01 04:27:00;;;;;;;5.63;2.50;;;;;;;-3.01;87.71;99414.34;5058659;28;20049;-78
2021/12/01 04:29:27;;;;;;;4.45;2.13;;;;;;;-3.04;88.14;99414.25;5059458;28;20491;-78
2021/12/01 04:31:55;;;;;;;4.93;2.20;;;;;;;-3.04;87.95;99416.78;5052551;28;20123;-78
2021/12/01 04:34:22;;;;;;;4.45;1.98;;;;;;;-3.02;87.84;99422.75;5054288;28;20049;-78
2021/12/01 04:36:50;;;;;;;4.93;2.13;;;;;;;-3.05;87.78;99427.75;5058452;28;20045;-78
2021/12/01 04:39:20;;;;;;;4.80;1.90;;;;;;;-3.08;88.19;99422.63;5054487;28;20250;-77
2021/12/01 04:41:53;;;;;;;3.83;1.63;;;;;;;-3.10;87.94;99407.38;5060051;28;20047;-78
2021/12/01 04:44:22;;;;;;;5.32;2.22;;;;;;;-3.10;87.83;99407.38;5058035;28;20067;-77
2021/12/01 04:46:53;;;;;;;7.03;2.88;;;;;;;-3.12;87.71;99411.53;5058643;28;20900;-78
2021/12/01 04:49:22;;;;;;;10.38;3.08;;;;;;;-3.14;87.00;99413.16;5053105;28;20139;-77
2021/12/01 04:51:52;;;;;;;7.00;2.20;;;;;;;-3.18;87.10;99412.22;5058957;28;20048;-78
2021/12/01 04:54:21;;;;;;;6.50;2.72;;;;;;;-3.24;87.13;99404.47;5056654;28;20094;-78
2021/12/01 04:56:48;;;;;;;6.13;2.63;;;;;;;-3.30;87.04;99401.78;5053350;28;20047;-78
2021/12/01 04:59:17;;;;;;;7.00;3.13;;;;;;;-3.34;87.28;99399.97;5057371;28;20512;-77
2021/12/01 05:01:45;;;;;;;8.63;3.85;;;;;;;-3.41;86.87;99403.19;5058898;28;20427;-77
2021/12/01 05:04:13;;;;;;;10.43;4.97;;;;;;;-3.48;87.13;99401.31;5053814;28;20040;-77
2021/12/01 05:06:40;;;;;;;9.88;3.58;;;;;;;-3.50;87.37;99402.94;5060590;28;20055;-77
2021/12/01 05:09:10;;;;;;;6.22;2.85;;;;;;;-3.55;87.65;99401.97;5060702;28;20440;-78
2021/12/01 05:11:40;;;;;;;8.05;3.67;;;;;;;-3.60;88.68;99400.97;5053127;28;20045;-78
2021/12/01 05:14:08;;;;;;;10.68;3.72;;;;;;;-3.61;89.38;99396.75;5064395;28;20237;-78
2021/12/01 05:16:37;;;;;;;17.58;5.50;;;;;;;-3.64;89.59;99407.66;5065023;28;20508;-78
2021/12/01 05:19:05;;;;;;;14.55;5.30;;;;;;;-3.68;90.11;99393.16;5056371;28;20059;-78
2021/12/01 05:21:32;;;;;;;10.52;4.45;;;;;;;-3.72;90.05;99390.50;5059558;28;20072;-77
2021/12/01 05:24:00;;;;;;;8.38;3.60;;;;;;;-3.81;89.72;99381.84;5059565;28;20492;-78
2021/12/01 05:26:27;;;;;;;7.75;3.10;;;;;;;-3.86;90.20;99385.91;5056733;28;20056;-77
2021/12/01 05:28:57;;;;;;;6.05;2.42;;;;;;;-3.90;90.36;99389.19;5061815;28;20117;-79
2021/12/01 05:31:24;;;;;;;8.35;3.05;;;;;;;-3.96;90.66;99390.69;5062117;28;20041;-78
2021/12/01 05:33:52;;;;;;;7.32;3.53;;;;;;;-4.04;90.47;99398.06;5055086;28;20450;-78
2021/12/01 05:36:19;;;;;;;11.68;3.60;;;;;;;-4.05;90.72;99388.75;5057843;28;20462;-77
2021/12/01 05:38:46;;;;;;;8.98;3.17;;;;;;;-4.10;90.74;99382.72;5064720;28;20491;-78
2021/12/01 05:41:14;;;;;;;13.40;4.70;;;;;;;-4.13;90.78;99387.69;5062131;28;20059;-78
2021/12/01 05:43:41;;;;;;;12.07;4.15;;;;;;;-4.18;90.87;99384.13;5055205;28;20040;-78
2021/12/01 05:46:10;;;;;;;6.78;2.88;;;;;;;-4.24;91.02;99399.16;5059911;28;20416;-78
2021/12/01 05:48:37;;;;;;;9.60;2.90;;;;;;;-4.31;91.01;99397.25;5061858;28;20055;-78
2021/12/01 05:51:04;;;;;;;5.75;2.63;;;;;;;-4.34;91.40;99407.28;5062760;28;20048;-77
2021/12/01 05:53:32;;;;;;;7.07;2.30;;;;;;;-4.28;91.68;99422.66;5060194;28;20051;-78
2021/12/01 05:55:59;;;;;;;5.97;2.40;;;;;;;-4.20;92.39;99427.13;5060210;28;20045;-79
2021/12/01 05:58:27;;;;;;;7.13;3.35;;;;;;;-4.12;92.31;99427.38;5061136;28;20047;-77
2021/12/01 06:00:55;;;;;;;8.93;3.00;;;;;;;-4.11;92.10;99429.09;5059522;28;20048;-78
2021/12/01 06:03:23;;;;;;;6.78;2.70;;;;;;;-4.07;91.69;99428.34;5059329;28;20118;-79
2021/12/01 06:05:50;;;;;;;5.60;2.80;;;;;;;-4.03;91.59;99424.25;5057002;28;20045;-78
2021/12/01 06:08:18;;;;;;;5.90;2.42;;;;;;;-4.02;91.31;99431.03;5055838;28;20067;-78
2021/12/01 06:10:46;;;;;;;7.85;3.20;;;;;;;-3.99;91.59;99431.97;5060570;28;20040;-80
2021/12/01 06:13:16;;;;;;;8.68;3.63;;;;;;;-3.99;91.25;99420.97;5056163;28;20045;-78
2021/12/01 06:15:44;;;;;;;9.48;3.05;;;;;;;-4.02;90.90;99424.28;5055979;28;20120;-78
2021/12/01 06:18:11;;;;;;;7.07;3.20;;;;;;;-4.03;90.38;99419.19;5057434;28;20047;-77
2021/12/01 06:20:40;;;;;;;8.05;2.88;;;;;;;-4.02;90.61;99421.75;5054752;28;20505;-77
2021/12/01 06:23:07;;;;;;;12.02;3.22;;;;;;;-4.03;90.39;99404.84;5057028;28;20044;-78
2021/12/01 06:25:35;;;;;;;9.25;3.53;;;;;;;-4.07;89.93;99412.31;5057946;28;20495;-78
2021/12/01 06:28:02;;;;;;;7.97;3.35;;;;;;;-4.11;90.01;99410.50;5052691;28;20094;-79
2021/12/01 06:30:33;;;;;;;7.43;2.80;;;;;;;-4.16;90.20;99407.84;5054298;28;20048;-78
2021/12/01 06:33:00;;;;;;;8.10;3.22;;;;;;;-4.17;90.55;99408.63;5057820;28;20041;-80
2021/12/01 06:35:28;;;;;;;13.05;3.58;;;;;;;-4.15;90.35;99404.50;5055704;28;20083;-79
2021/12/01 06:37:57;;;;;;;9.50;3.33;;;;;;;-4.15;90.31;99404.50;5058952;28;20052;-77
2021/12/01 06:40:25;;;;;;;6.63;3.17;;;;;;;-4.11;90.34;99401.25;5060470;28;20055;-77
2021/12/01 06:42:53;;;;;;;6.78;2.72;;;;;;;-4.07;90.96;99403.06;5062386;28;20078;-78
2021/12/01 06:45:21;;;;;;;10.10;3.03;;;;;;;-4.01;90.81;99400.69;5057257;28;20131;-77
2021/12/01 06:47:48;;;;;;;12.23;4.47;;;;;;;-3.95;91.09;99398.31;5058818;28;20094;-78
2021/12/01 06:50:17;;;;;;;5.65;2.22;;;;;;;-3.90;90.79;99400.97;5057858;28;20067;-77
2021/12/01 06:52:45;;;;;;;7.95;3.03;;;;;;;-3.86;91.02;99398.56;5059954;28;20052;-77
2021/12/01 06:55:14;;;;;;;6.05;2.72;;;;;;;-3.82;91.08;99399.53;5062975;28;20397;-78
2021/12/01 06:57:41;;;;;;;4.28;2.30;;;;;;;-3.78;91.03;99401.31;5065167;28;20516;-78
2021/12/01 07:00:14;;;;;;;6.75;3.28;;;;;;;-3.71;90.54;99397.28;5056804;28;20041;-77
2021/12/01 07:02:41;;;;;;;12.95;7.55;;;;;;;-3.70;90.52;99393.94;5058118;28;20037;-78
2021/12/01 07:05:11;;;;;;;8.63;3.15;;;;;;;-3.64;90.83;99399.16;5063515;28;20045;-77
2021/12/01 07:07:38;;;;;;;5.90;3.13;;;;;;;-3.62;91.14;99397.56;5064428;28;20127;-77
2021/12/01 07:10:09;;;;;;;9.10;3.53;;;;;;;-3.54;91.22;99391.00;5059217;28;20044;-78
2021/12/01 07:12:38;;;;;;;10.32;4.40;;;;;;;-3.47;91.52;99394.56;5063058;28;20068;-78
2021/12/01 07:15:06;;;;;;;10.23;4.25;;;;;;;-3.40;91.30;99388.84;5054408;28;20046;-77
2021/12/01 07:17:34;;;;;;;9.52;4.18;;;;;;;-3.35;91.40;99390.66;5049157;28;20052;-78
2021/12/01 07:20:01;;;;;;;8.45;4.38;;;;;;;-3.31;92.00;99379.78;5057233;28;20044;-78
2021/12/01 07:22:28;;;;;;;9.23;4.00;;;;;;;-3.24;91.81;99375.72;5058581;28;20495;-83
2021/12/01 07:24:56;;;;;;;10.93;4.65;;;;;;;-3.19;91.66;99380.09;5059695;28;20040;-82
2021/12/01 07:27:23;;;;;;;8.35;4.10;;;;;;;-3.14;91.61;99377.66;5062334;28;20076;-81
2021/12/01 07:29:51;;;;;;;10.63;4.22;;;;;;;-3.09;91.68;99366.00;5062325;28;20045;-78
2021/12/01 07:32:19;;;;;;;12.70;4.38;;;;;;;-3.02;91.59;99367.00;5053446;28;20530;-77
2021/12/01 07:34:46;;;;;;;12.18;4.28;;;;;;;-2.97;91.31;99370.50;5054824;28;20040;-76
2021/12/01 07:37:15;;;;;;;9.48;4.15;;;;;;;-2.89;91.39;99356.31;5057500;28;20045;-77
2021/12/01 07:39:43;;;;;;;11.52;5.30;;;;;;;-2.85;91.31;99353.03;5055317;28;20045;-80
2021/12/01 07:42:11;;;;;;;14.15;4.68;;;;;;;-2.79;90.84;99349.75;5059718;28;20051;-83
2021/12/01 07:44:38;;;;;;;10.20;4.82;;;;;;;-2.73;90.77;99340.63;5058460;28;20041;-81
2021/12/01 07:47:07;;;;;;;13.95;6.15;;;;;;;-2.66;90.66;99347.53;5056856;28;20055;-82
2021/12/01 07:49:35;;;;;;;17.35;6.03;;;;;;;-2.59;90.72;99346.88;5052858;28;20126;-79
2021/12/01 07:52:05;;;;;;;11.63;6.07;;;;;;;-2.53;90.79;99341.06;5055582;28;20048;-80
2021/12/01 07:54:33;;;;;;;16.70;7.07;;;;;;;-2.48;90.66;99338.63;5057409;28;20573;-80
2021/12/01 07:57:01;;;;;;;12.85;5.05;;;;;;;-2.46;89.85;99339.53;5053349;28;20058;-78
2021/12/01 07:59:28;;;;;;;14.13;6.15;;;;;;;-2.43;89.94;99349.75;5059692;28;20040;-77
2021/12/01 08:01:56;;;;;;;10.25;4.50;;;;;;;-2.45;89.83;99338.69;5054259;28;20138;-78
2021/12/01 08:04:26;;;;;;;19.75;6.82;;;;;;;-2.43;90.15;99344.66;5051871;28;20066;-78
2021/12/01 08:06:54;;;;;;;24.00;10.27;;;;;;;-2.43;89.90;99324.34;5056563;28;20083;-77
2021/12/01 08:09:23;;;;;;;39.30;13.10;;;;;;;-2.39;89.89;99331.22;5052646;28;20135;-78
2021/12/01 08:11:50;;;;;;;38.42;13.27;;;;;;;-2.33;90.21;99331.34;5058038;28;20043;-78
2021/12/01 08:14:17;;;;;;;42.08;13.57;;;;;;;-2.27;90.56;99334.84;5055990;28;20052;-78
2021/12/01 08:16:45;;;;;;;34.85;12.73;;;;;;;-2.26;90.32;99330.63;5057672;28;20049;-82
2021/12/01 08:19:12;;;;;;;29.65;11.40;;;;;;;-2.21;90.22;99326.50;5055357;28;20551;-79
2021/12/01 08:21:41;;;;;;;31.02;12.07;;;;;;;-2.14;90.51;99327.47;5059256;28;20041;-79
2021/12/01 08:24:10;;;;;;;24.98;10.98;;;;;;;-2.09;90.45;99315.72;5059771;28;20040;-80
2021/12/01 08:26:37;;;;;;;27.50;10.73;;;;;;;-2.03;90.51;99315.88;5062490;28;20053;-80
2021/12/01 08:29:04;;;;;;;22.10;9.75;;;;;;;-1.99;90.81;99318.50;5058213;28;20098;-79
2021/12/01 08:31:31;;;;;;;21.67;9.07;;;;;;;-1.95;90.36;99325.34;5056515;28;20051;-79
2021/12/01 08:33:59;;;;;;;22.25;9.48;;;;;;;-1.92;90.86;99315.25;5053963;28;20068;-80
2021/12/01 08:36:26;;;;;;;21.27;9.00;;;;;;;-1.86;90.69;99311.97;5057176;28;20060;-79
2021/12/01 08:38:55;;;;;;;17.50;7.57;;;;;;;-1.78;91.26;99296.88;5054437;28;20044;-77
2021/12/01 08:41:22;;;;;;;12.38;6.15;;;;;;;-1.72;91.26;99296.97;5062492;28;20056;-78
2021/12/01 08:43:50;;;;;;;13.60;6.30;;;;;;;-1.67;90.71;99287.75;5062583;28;20037;-79
2021/12/01 08:46:17;;;;;;;12.68;5.57;;;;;;;-1.61;91.11;99292.94;5054765;28;20111;-79
2021/12/01 08:48:44;;;;;;;13.07;5.93;;;;;;;-1.55;91.25;99292.22;5053338;28;20045;-78
2021/12/01 08:51:12;;;;;;;9.85;4.95;;;;;;;-1.51;91.13;99292.28;5056387;28;20055;-77
2021/12/01 08:53:41;;;;;;;8.82;4.47;;;;;;;-1.44;91.04;99283.94;5058237;28;20044;-76
2021/12/01 08:56:10;;;;;;;10.45;5.13;;;;;;;-1.38;91.25;99284.03;5056197;28;20062;-78
2021/12/01 08:58:38;;;;;;;16.23;7.55;;;;;;;-1.31;91.24;99285.81;5062030;28;20041;-76
2021/12/01 09:01:05;;;;;;;19.75;9.13;;;;;;;-1.28;90.93;99288.41;5059640;28;20053;-79
2021/12/01 09:03:33;;;;;;;21.35;10.13;;;;;;;-1.25;90.78;99281.66;5058036;28;20051;-80
2021/12/01 09:06:00;;;;;;;17.38;8.63;;;;;;;-1.23;90.99;99275.78;5059095;28;20055;-80
2021/12/01 09:08:28;;;;;;;17.85;8.57;;;;;;;-1.14;91.31;99277.59;5065569;28;20080;-81
2021/12/01 09:10:57;;;;;;;18.98;9.07;;;;;;;-1.07;91.40;99275.16;5061836;28;20052;-77
2021/12/01 09:13:27;;;;;;;19.83;8.85;;;;;;;-0.99;91.62;99268.53;5059585;28;20040;-78
2021/12/01 09:15:57;;;;;;;16.23;8.23;;;;;;;-0.90;91.72;99272.91;5056198;28;20739;-80
2021/12/01 09:18:27;;;;;;;15.07;7.38;;;;;;;-0.80;91.42;99264.56;5058579;28;20036;-80
2021/12/01 09:20:54;;;;;;;33.63;14.43;;;;;;;-0.72;91.35;99257.88;5063879;28;20044;-80
2021/12/01 09:23:22;;;;;;;24.50;11.23;;;;;;;-0.63;91.36;99252.03;5060144;28;20044;-79
2021/12/01 09:25:50;;;;;;;18.27;9.07;;;;;;;-0.56;91.22;99255.53;5062058;28;20048;-82
2021/12/01 09:28:19;;;;;;;13.88;8.27;;;;;;;-0.52;91.09;99250.50;5057391;28;20428;-80
2021/12/01 09:30:48;;;;;;;18.00;9.90;;;;;;;-0.49;90.87;99250.56;5060721;28;20056;-80
2021/12/01 09:33:16;;;;;;;21.15;11.82;;;;;;;-0.47;90.81;99248.03;5057762;28;20045;-79
2021/12/01 09:35:43;;;;;;;21.70;9.88;;;;;;;-0.42;90.84;99246.38;5057380;28;20043;-77
2021/12/01 09:38:14;;;;;;;17.60;10.23;;;;;;;-0.41;90.69;99243.00;5059660;28;20044;-84
2021/12/01 09:40:45;;;;;;;20.02;11.85;;;;;;;-0.38;90.70;99248.13;5057675;28;20048;-83
2021/12/01 09:43:13;;;;;;;17.85;10.35;;;;;;;-0.38;90.92;99238.81;5061140;28;20092;-82
2021/12/01 09:45:41;;;;;;;21.45;12.45;;;;;;;-0.35;90.85;99240.53;5060724;28;20032;-83
2021/12/01 09:48:10;;;;;;;21.83;10.02;;;;;;;-0.30;90.83;99241.44;5067642;28;20717;-84
2021/12/01 09:50:37;;;;;;;21.27;10.88;;;;;;;-0.30;90.63;99231.25;5062368;28;20048;-84
2021/12/01 09:53:05;;;;;;;24.30;11.48;;;;;;;-0.25;90.57;99234.69;5061727;28;20051;-88
2021/12/01 09:55:33;;;;;;;19.58;11.07;;;;;;;-0.24;90.80;99221.13;5067281;28;20126;-85
2021/12/01 09:58:05;;;;;;;17.88;9.70;;;;;;;-0.20;90.61;99222.88;5065442;28;20049;-80
2021/12/01 10:00:33;;;;;;;18.77;10.40;;;;;;;-0.18;90.26;99221.19;5059126;28;20075;-80
2021/12/01 10:03:00;;;;;;;18.13;9.43;;;;;;;-0.14;90.50;99211.88;5062227;28;20053;-81
2021/12/01 10:06:04;;;;;;;17.92;10.02;;;;;;;-0.15;90.35;99200.84;5058282;28;20141;-80
2021/12/01 10:08:35;;;;;;;24.10;13.98;;;;;;;-0.13;90.24;99204.25;5057724;28;20079;-80
2021/12/01 10:11:06;;;;;;;23.85;14.98;;;;;;;-0.13;90.16;99204.25;5058866;28;20055;-81
2021/12/01 10:13:37;;;;;;;13.27;8.95;;;;;;;-0.16;90.03;99198.28;5061615;28;20055;-78
2021/12/01 10:16:07;;;;;;;18.88;9.63;;;;;;;-0.19;90.30;99198.25;5063745;28;20045;-79
2021/12/01 10:18:40;;;;;;;17.45;10.65;;;;;;;-0.22;90.21;99181.25;5061645;28;20123;-77
2021/12/01 10:21:11;;;;;;;21.35;12.50;;;;;;;-0.26;90.70;99176.97;5056797;28;20045;-81
2021/12/01 10:23:44;;;;;;;18.60;11.13;;;;;;;-0.23;90.76;99176.13;5052402;28;20041;-81
2021/12/01 10:26:14;;;;;;;28.95;15.68;;;;;;;-0.22;90.94;99172.75;5061266;28;20053;-80
2021/12/01 10:28:44;;;;;;;21.58;11.02;;;;;;;-0.23;90.95;99165.94;5057074;28;20137;-79
2021/12/01 10:31:12;;;;;;;24.27;13.00;;;;;;;-0.27;91.10;99175.25;5060521;28;20575;-76
2021/12/01 10:33:40;;;;;;;19.67;10.65;;;;;;;-0.27;91.42;99180.34;5058704;28;20036;-79
2021/12/01 10:36:09;;;;;;;19.45;10.95;;;;;;;-0.29;91.51;99168.44;5062264;28;20557;-78
2021/12/01 10:38:41;;;;;;;22.42;12.73;;;;;;;-0.30;91.27;99170.13;5062835;28;21802;-81
2021/12/01 10:41:11;;;;;;;18.48;11.00;;;;;;;-0.29;91.81;99150.63;5057906;28;20045;-79
2021/12/01 10:43:45;;;;;;;15.60;8.02;;;;;;;-0.31;92.03;99158.25;5059811;28;20048;-80
2021/12/01 10:46:15;;;;;;;15.85;8.18;;;;;;;-0.32;92.10;99139.56;5062623;28;20056;-79
2021/12/01 10:48:42;;;;;;;16.48;8.30;;;;;;;-0.33;92.35;99147.19;5068925;28;20211;-80
2021/12/01 10:51:13;;;;;;;14.90;9.05;;;;;;;-0.33;92.69;99134.47;5055491;28;20045;-79
2021/12/01 10:53:42;;;;;;;16.90;8.63;;;;;;;-0.30;92.63;99131.09;5059246;28;20076;-78
2021/12/01 10:56:09;;;;;;;16.20;8.95;;;;;;;-0.30;93.14;99119.22;5062338;28;20048;-78
2021/12/01 10:58:38;;;;;;;19.35;9.52;;;;;;;-0.28;93.28;99119.22;5056250;28;20508;-79
2021/12/01 11:01:19;;;;;;;19.23;9.68;;;;;;;-0.26;93.55;99115.84;5055969;28;20494;-77
2021/12/01 11:03:47;;;;;;;18.90;9.05;;;;;;;-0.24;93.82;99110.78;5060748;28;20450;-82
2021/12/01 11:06:19;;;;;;;20.83;9.35;;;;;;;-0.24;94.15;99109.06;5064805;28;20056;-82
2021/12/01 11:08:55;;;;;;;21.25;9.63;;;;;;;-0.24;94.18;99093.78;5074776;28;20075;-83
2021/12/01 11:11:24;;;;;;;22.90;9.35;;;;;;;-0.22;94.34;99084.47;5067322;28;20118;-81
2021/12/01 11:13:52;;;;;;;23.45;10.20;;;;;;;-0.24;94.32;99078.53;5062347;28;20048;-79
2021/12/01 11:16:20;;;;;;;25.00;9.65;;;;;;;-0.24;94.41;99068.34;5064685;28;20135;-81
2021/12/01 11:18:48;;;;;;;24.17;10.77;;;;;;;-0.21;94.64;99065.81;5059273;28;20417;-81
2021/12/01 11:21:17;;;;;;;22.98;10.20;;;;;;;-0.18;94.81;99058.19;5058447;28;20045;-81
2021/12/01 11:23:48;;;;;;;19.50;10.63;;;;;;;-0.14;94.58;99052.28;5057773;28;20569;-82
2021/12/01 11:26:19;;;;;;;23.35;10.52;;;;;;;-0.11;94.67;99049.75;5061684;28;20415;-80
2021/12/01 11:28:48;;;;;;;19.67;9.30;;;;;;;-0.11;94.64;99049.75;5060456;28;21554;-80
2021/12/01 11:31:18;;;;;;;20.70;10.15;;;;;;;-0.09;94.56;99037.88;5058964;28;20037;-83
2021/12/01 11:33:46;;;;;;;21.08;10.40;;;;;;;-0.06;94.52;99022.63;5055131;28;20095;-79
2021/12/01 11:36:17;;;;;;;18.90;9.48;;;;;;;-0.04;94.45;99020.94;5058508;28;20504;-77
2021/12/01 11:38:44;;;;;;;22.67;10.65;;;;;;;-0.04;94.42;99020.94;5057942;28;20045;-77
2021/12/01 11:41:13;;;;;;;23.90;10.48;;;;;;;-0.03;94.35;99012.44;5060917;28;20048;-79